createdAt,value
2022-12-13T00:01:58.188Z,22.60
2022-12-13T00:04:25.459Z,26.40
2022-12-13T00:06:52.746Z,23.10
2022-12-13T00:09:19.916Z,21.60
2022-12-13T00:11:46.521Z,21.00
2022-12-13T00:14:13.580Z,18.60
2022-12-13T00:16:40.959Z,18.00
2022-12-13T00:19:07.480Z,15.40
2022-12-13T00:21:34.343Z,17.40
2022-12-13T00:24:01.694Z,20.90
2022-12-13T00:26:32.843Z,22.80
2022-12-13T00:29:00.939Z,20.00
2022-12-13T00:31:58.552Z,21.40
2022-12-13T00:34:15.058Z,26.30
2022-12-13T00:36:41.643Z,26.20
2022-12-13T00:39:08.382Z,27.00
2022-12-13T00:41:36.059Z,21.00
2022-12-13T00:44:04.419Z,20.40
2022-12-13T00:46:31.239Z,19.90
2022-12-13T00:49:00.065Z,18.20
2022-12-13T00:51:28.833Z,13.60
2022-12-13T00:53:56.017Z,14.60
2022-12-13T00:56:25.112Z,14.70
2022-12-13T00:58:52.678Z,13.70
2022-12-13T01:01:24.565Z,14.00
2022-12-13T01:03:54.058Z,12.00
2022-12-13T01:06:25.607Z,12.50
2022-12-13T01:11:19.116Z,13.80
2022-12-13T01:13:46.255Z,13.90
2022-12-13T01:16:13.971Z,15.10
2022-12-13T01:18:41.412Z,17.00
2022-12-13T01:21:16.420Z,17.10
2022-12-13T01:23:43.908Z,14.50
2022-12-13T01:26:15.973Z,16.60
2022-12-13T01:28:43.216Z,15.60
2022-12-13T01:31:13.323Z,14.20
2022-12-13T01:33:40.510Z,16.10
2022-12-13T01:36:14.718Z,14.00
2022-12-13T01:38:41.487Z,14.20
2022-12-13T01:41:17.120Z,11.90
2022-12-13T01:43:44.488Z,12.90
2022-12-13T01:46:12.874Z,14.80
2022-12-13T01:48:47.346Z,14.30
2022-12-13T01:51:17.537Z,14.20
2022-12-13T01:53:46.844Z,12.70
2022-12-13T01:56:23.328Z,12.80
2022-12-13T01:58:52.419Z,11.40
2022-12-13T02:01:19.472Z,16.20
2022-12-13T02:03:46.407Z,16.30
2022-12-13T02:06:38.863Z,14.50
2022-12-13T02:09:07.443Z,15.10
2022-12-13T02:11:40.721Z,12.90
2022-12-13T02:14:07.257Z,11.80
2022-12-13T02:17:06.184Z,17.60
2022-12-13T02:20:21.644Z,12.90
2022-12-13T02:22:57.945Z,15.20
2022-12-13T02:26:02.065Z,13.20
2022-12-13T02:28:37.391Z,12.40
2022-12-13T02:31:14.952Z,12.50
2022-12-13T02:33:52.901Z,12.90
2022-12-13T02:36:36.697Z,13.40
2022-12-13T02:39:11.706Z,11.90
2022-12-13T02:41:46.741Z,10.60
2022-12-13T02:44:34.779Z,11.20
2022-12-13T02:47:21.977Z,11.90
2022-12-13T02:49:52.841Z,12.40
2022-12-13T02:52:22.977Z,11.00
2022-12-13T02:54:49.626Z,11.50
2022-12-13T02:57:29.812Z,9.10
2022-12-13T03:00:00.081Z,10.00
2022-12-13T03:02:35.322Z,10.80
2022-12-13T03:05:04.626Z,9.30
2022-12-13T03:07:50.725Z,9.60
2022-12-13T03:10:33.049Z,8.00
2022-12-13T03:13:08.668Z,9.20
2022-12-13T03:15:35.044Z,9.60
2022-12-13T03:18:09.685Z,8.80
2022-12-13T03:20:36.455Z,9.50
2022-12-13T03:23:02.920Z,9.00
2022-12-13T03:25:32.656Z,10.00
2022-12-13T03:28:02.011Z,9.60
2022-12-13T03:30:30.256Z,9.20
2022-12-13T03:32:57.012Z,8.10
2022-12-13T03:35:23.793Z,6.50
2022-12-13T03:37:51.217Z,6.60
2022-12-13T03:40:19.767Z,5.60
2022-12-13T03:42:46.972Z,5.90
2022-12-13T03:45:14.114Z,6.90
2022-12-13T03:47:40.974Z,5.50
2022-12-13T03:50:26.066Z,5.30
2022-12-13T03:53:01.910Z,5.00
2022-12-13T03:55:29.029Z,5.50
2022-12-13T03:57:55.739Z,4.90
2022-12-13T04:00:22.334Z,4.70
2022-12-13T04:02:48.819Z,5.30
2022-12-13T04:05:16.056Z,5.40
2022-12-13T04:07:47.959Z,5.30
2022-12-13T04:10:26.415Z,4.90
2022-12-13T04:12:54.712Z,4.90
2022-12-13T04:15:27.478Z,5.60
2022-12-13T04:17:53.872Z,5.10
2022-12-13T04:20:20.393Z,5.20
2022-12-13T04:22:46.801Z,5.60
2022-12-13T04:25:13.511Z,6.00
2022-12-13T04:27:40.414Z,5.50
2022-12-13T04:30:07.820Z,6.00
2022-12-13T04:32:34.372Z,5.40
2022-12-13T04:35:01.754Z,6.10
2022-12-13T04:37:29.307Z,5.40
2022-12-13T04:40:00.593Z,6.70
2022-12-13T04:42:28.189Z,5.90
2022-12-13T04:44:54.675Z,6.00
2022-12-13T04:47:21.106Z,6.00
2022-12-13T04:49:47.641Z,5.70
2022-12-13T04:52:14.069Z,5.50
2022-12-13T04:54:55.899Z,6.00
2022-12-13T04:57:23.958Z,5.30
2022-12-13T04:59:50.465Z,6.10
2022-12-13T05:02:24.089Z,4.90
2022-12-13T05:04:53.520Z,5.60
2022-12-13T05:07:21.785Z,5.40
2022-12-13T05:09:48.433Z,5.50
2022-12-13T05:12:22.371Z,5.60
2022-12-13T05:14:49.571Z,5.30
2022-12-13T05:17:16.028Z,5.00
2022-12-13T05:19:42.574Z,5.60
2022-12-13T05:22:13.579Z,7.70
2022-12-13T05:24:44.453Z,8.00
2022-12-13T05:27:25.408Z,12.60
2022-12-13T05:30:03.067Z,6.50
2022-12-13T05:32:43.391Z,16.00
2022-12-13T05:35:22.125Z,10.70
2022-12-13T05:37:55.072Z,14.50
2022-12-13T05:42:49.104Z,12.10
2022-12-13T05:45:17.994Z,12.50
2022-12-13T05:47:44.728Z,12.70
2022-12-13T05:50:12.439Z,9.90
2022-12-13T05:52:39.252Z,11.10
2022-12-13T05:55:06.544Z,12.00
2022-12-13T05:57:32.980Z,11.00
2022-12-13T06:00:01.054Z,8.60
2022-12-13T06:02:28.233Z,10.40
2022-12-13T06:04:54.740Z,16.80
2022-12-13T06:07:21.207Z,22.00
2022-12-13T06:09:47.779Z,17.00
2022-12-13T06:12:31.130Z,16.20
2022-12-13T06:15:00.706Z,38.50
2022-12-13T06:17:36.011Z,42.80
2022-12-13T06:20:04.596Z,32.90
2022-12-13T06:22:50.599Z,26.10
2022-12-13T06:25:30.726Z,29.80
2022-12-13T06:28:01.069Z,34.30
2022-12-13T06:30:29.459Z,48.60
2022-12-13T06:32:56.519Z,32.80
2022-12-13T06:35:29.107Z,51.40
2022-12-13T06:38:01.252Z,25.70
2022-12-13T06:40:30.885Z,24.90
2022-12-13T06:42:57.943Z,21.90
2022-12-13T06:45:25.596Z,25.80
2022-12-13T06:47:52.336Z,25.50
2022-12-13T06:50:19.288Z,27.10
2022-12-13T06:52:46.656Z,26.40
2022-12-13T06:55:13.716Z,26.10
2022-12-13T06:57:40.854Z,26.10
2022-12-13T07:00:09.540Z,24.80
2022-12-13T07:02:36.394Z,24.40
2022-12-13T07:05:03.434Z,22.40
2022-12-13T07:07:29.861Z,25.30
2022-12-13T07:09:56.399Z,27.90
2022-12-13T07:12:23.411Z,28.00
2022-12-13T07:14:50.503Z,24.90
2022-12-13T07:17:32.640Z,24.30
2022-12-13T07:20:07.062Z,31.60
2022-12-13T07:22:34.628Z,30.00
2022-12-13T07:25:02.390Z,30.50
2022-12-13T07:27:28.837Z,34.50
2022-12-13T07:29:55.223Z,36.00
2022-12-13T07:32:21.681Z,36.60
2022-12-13T07:34:48.220Z,34.40
2022-12-13T07:37:30.549Z,34.70
2022-12-13T07:40:03.294Z,34.30
2022-12-13T07:42:31.490Z,35.20
2022-12-13T07:44:57.912Z,46.50
2022-12-13T07:47:29.808Z,45.40
2022-12-13T07:49:56.233Z,37.90
2022-12-13T07:52:22.674Z,37.50
2022-12-13T07:54:49.106Z,35.70
2022-12-13T07:57:16.055Z,43.70
2022-12-13T07:59:42.521Z,43.60
2022-12-13T08:02:13.831Z,44.70
2022-12-13T08:04:42.641Z,43.10
2022-12-13T08:07:11.221Z,38.40
2022-12-13T08:09:37.687Z,43.40
2022-12-13T08:12:04.372Z,37.90
2022-12-13T08:14:31.325Z,39.70
2022-12-13T08:16:58.029Z,39.00
2022-12-13T08:19:24.416Z,39.70
2022-12-13T08:22:01.973Z,38.20
2022-12-13T08:24:30.951Z,38.90
2022-12-13T08:26:59.328Z,38.50
2022-12-13T08:29:34.276Z,38.80
2022-12-13T08:32:05.307Z,34.10
2022-12-13T08:34:31.877Z,32.70
2022-12-13T08:37:01.873Z,33.80
2022-12-13T08:39:34.002Z,34.60
2022-12-13T08:42:15.903Z,56.50
2022-12-13T08:44:49.102Z,62.10
2022-12-13T08:47:23.249Z,59.20
2022-12-13T08:49:50.892Z,59.50
2022-12-13T08:52:17.438Z,62.30
2022-12-13T08:54:43.845Z,58.60
2022-12-13T08:57:10.387Z,57.10
2022-12-13T08:59:36.850Z,58.00
2022-12-13T09:02:05.314Z,58.40
2022-12-13T09:04:32.432Z,56.90
2022-12-13T09:07:01.248Z,58.10
2022-12-13T09:09:29.026Z,61.80
2022-12-13T09:11:59.546Z,55.40
2022-12-13T09:14:27.032Z,56.50
2022-12-13T09:17:03.349Z,59.70
2022-12-13T09:19:37.004Z,61.20
2022-12-13T09:22:05.061Z,59.00
2022-12-13T09:24:36.337Z,59.60
2022-12-13T09:27:09.649Z,59.80
2022-12-13T09:29:37.411Z,53.00
2022-12-13T09:32:04.263Z,54.20
2022-12-13T09:34:30.975Z,48.00
2022-12-13T09:37:01.094Z,47.40
2022-12-13T09:39:29.503Z,43.50
2022-12-13T09:42:01.069Z,31.60
2022-12-13T09:44:43.646Z,35.50
2022-12-13T09:47:27.415Z,33.40
2022-12-13T09:50:14.852Z,34.80
2022-12-13T09:52:44.249Z,33.00
2022-12-13T09:55:24.657Z,24.70
2022-12-13T09:57:52.384Z,26.10
2022-12-13T10:00:21.932Z,22.50
2022-12-13T10:02:51.803Z,18.10
2022-12-13T10:05:34.126Z,20.90
2022-12-13T10:08:16.704Z,18.10
2022-12-13T10:10:44.011Z,13.80
2022-12-13T10:13:19.745Z,15.50
2022-12-13T10:15:54.782Z,13.90
2022-12-13T10:18:35.055Z,12.60
2022-12-13T10:21:22.116Z,12.80
2022-12-13T10:26:39.431Z,13.00
2022-12-13T10:29:07.394Z,13.70
2022-12-13T10:31:46.132Z,13.90
2022-12-13T10:34:25.271Z,13.80
2022-12-13T10:36:52.099Z,14.20
2022-12-13T10:39:42.613Z,14.40
2022-12-13T10:42:23.634Z,18.50
2022-12-13T10:45:23.676Z,19.00
2022-12-13T10:47:51.066Z,21.20
2022-12-13T10:50:30.038Z,18.20
2022-12-13T10:52:59.316Z,19.80
2022-12-13T10:55:35.559Z,17.60
2022-12-13T10:58:05.288Z,16.70
2022-12-13T11:00:37.150Z,17.70
2022-12-13T11:03:04.684Z,18.20
2022-12-13T11:05:33.585Z,17.90
2022-12-13T11:08:22.745Z,19.40
2022-12-13T11:11:00.095Z,17.50
2022-12-13T11:13:34.733Z,18.20
2022-12-13T11:16:01.890Z,20.80
2022-12-13T11:18:35.666Z,21.70
2022-12-13T11:21:05.314Z,21.70
2022-12-13T11:23:36.729Z,21.90
2022-12-13T11:26:10.524Z,22.70
2022-12-13T11:29:01.762Z,23.70
2022-12-13T11:32:09.993Z,23.50
2022-12-13T11:34:55.563Z,24.00
2022-12-13T11:37:42.992Z,23.60
2022-12-13T11:40:16.907Z,21.30
2022-12-13T11:42:49.831Z,20.40
2022-12-13T11:45:24.526Z,20.00
2022-12-13T11:48:02.123Z,20.00
2022-12-13T11:50:37.082Z,20.30
2022-12-13T11:53:12.505Z,19.20
2022-12-13T11:55:50.703Z,20.10
2022-12-13T11:59:01.121Z,21.00
2022-12-13T12:01:43.610Z,17.10
2022-12-13T12:04:30.299Z,18.90
2022-12-13T12:07:31.319Z,24.10
2022-12-13T12:10:03.349Z,15.60
2022-12-13T12:12:35.527Z,17.00
2022-12-13T12:15:16.254Z,14.20
2022-12-13T12:17:43.848Z,11.40
2022-12-13T12:20:23.154Z,9.40
2022-12-13T12:23:00.103Z,7.50
2022-12-13T12:25:45.246Z,7.70
2022-12-13T12:28:44.608Z,8.30
2022-12-13T12:31:20.102Z,8.00
2022-12-13T12:34:02.317Z,9.00
2022-12-13T12:36:37.596Z,10.90
2022-12-13T12:39:26.342Z,16.50
2022-12-13T12:42:56.498Z,8.90
2022-12-13T12:45:56.397Z,8.50
2022-12-13T12:49:02.921Z,9.40
2022-12-13T12:51:48.236Z,10.60
2022-12-13T12:54:42.431Z,16.10
2022-12-13T12:57:22.273Z,13.90
2022-12-13T13:00:19.466Z,13.80
2022-12-13T13:02:51.483Z,15.10
2022-12-13T13:05:28.674Z,12.40
2022-12-13T13:08:04.520Z,12.30
2022-12-13T13:10:32.009Z,15.50
2022-12-13T13:13:12.373Z,17.60
2022-12-13T13:15:39.656Z,15.90
2022-12-13T13:18:45.955Z,15.90
2022-12-13T13:21:24.423Z,19.00
2022-12-13T13:24:09.265Z,18.80
2022-12-13T13:26:38.702Z,17.40
2022-12-13T13:29:27.919Z,18.20
2022-12-13T13:32:02.094Z,16.70
2022-12-13T13:34:30.410Z,19.50
2022-12-13T13:36:58.042Z,16.00
2022-12-13T13:39:33.592Z,16.80
2022-12-13T13:42:32.262Z,16.50
2022-12-13T13:45:19.991Z,16.70
2022-12-13T13:48:15.759Z,18.30
2022-12-13T13:50:46.575Z,15.40
2022-12-13T13:53:55.425Z,17.60
2022-12-13T13:56:30.541Z,14.40
2022-12-13T13:59:05.709Z,17.50
2022-12-13T14:01:53.784Z,26.80
2022-12-13T14:04:29.138Z,30.00
2022-12-13T14:07:40.703Z,18.40
2022-12-13T14:10:25.322Z,16.10
2022-12-13T14:13:09.913Z,17.30
2022-12-13T14:15:59.771Z,19.20
2022-12-13T14:18:57.760Z,19.80
2022-12-13T14:21:47.474Z,22.30
2022-12-13T14:24:42.174Z,23.50
2022-12-13T14:27:25.329Z,24.20
2022-12-13T14:29:58.184Z,30.50
2022-12-13T14:32:29.249Z,28.50
2022-12-13T14:34:57.723Z,35.10
2022-12-13T14:37:35.570Z,77.00
2022-12-13T14:40:03.424Z,125.40
2022-12-13T14:42:32.611Z,45.00
2022-12-13T14:45:15.700Z,48.60
2022-12-13T14:47:43.189Z,69.90
2022-12-13T14:50:14.964Z,126.00
2022-12-13T14:52:43.096Z,88.20
2022-12-13T14:55:34.053Z,60.50
2022-12-13T14:58:02.674Z,61.30
2022-12-13T15:00:31.109Z,58.20
2022-12-13T15:03:00.746Z,49.30
2022-12-13T15:05:37.611Z,50.00
2022-12-13T15:08:10.285Z,79.30
2022-12-13T15:10:40.928Z,173.10
2022-12-13T15:13:23.669Z,143.30
2022-12-13T15:16:00.108Z,97.00
2022-12-13T15:18:28.015Z,76.40
2022-12-13T15:20:56.590Z,94.20
2022-12-13T15:23:32.381Z,40.30
2022-12-13T15:26:28.260Z,55.80
2022-12-13T15:29:10.160Z,54.20
2022-12-13T15:31:38.346Z,34.40
2022-12-13T15:34:30.572Z,51.10
2022-12-13T15:37:29.208Z,45.00
2022-12-13T15:40:05.643Z,55.80
2022-12-13T15:42:35.177Z,63.40
2022-12-13T15:45:05.090Z,73.00
2022-12-13T15:47:32.584Z,53.80
2022-12-13T15:50:01.652Z,61.30
2022-12-13T15:52:35.118Z,79.40
2022-12-13T15:55:07.692Z,82.50
2022-12-13T15:57:49.328Z,80.00
2022-12-13T16:03:10.022Z,77.20
2022-12-13T16:05:40.203Z,79.40
2022-12-13T16:08:18.128Z,81.60
2022-12-13T16:10:49.826Z,84.20
2022-12-13T16:13:29.749Z,90.60
2022-12-13T16:16:09.314Z,87.80
2022-12-13T16:18:53.400Z,87.70
2022-12-13T16:21:19.838Z,123.70
2022-12-13T16:23:48.557Z,128.10
2022-12-13T16:26:21.525Z,119.40
2022-12-13T16:28:47.908Z,126.50
2022-12-13T16:31:19.098Z,125.40
2022-12-13T16:33:45.650Z,128.10
2022-12-13T16:36:13.011Z,140.00
2022-12-13T16:38:39.552Z,134.70
2022-12-13T16:41:08.594Z,137.70
2022-12-13T16:43:40.252Z,134.10
2022-12-13T16:47:15.082Z,134.50
2022-12-13T16:48:54.479Z,164.50
2022-12-13T16:51:21.942Z,149.30
2022-12-13T16:53:49.098Z,164.50
2022-12-13T16:56:15.838Z,170.70
2022-12-13T16:58:49.407Z,151.40
2022-12-13T17:01:19.516Z,165.90
2022-12-13T17:03:46.515Z,151.10
2022-12-13T17:06:14.869Z,165.60
2022-12-13T17:08:41.332Z,163.10
2022-12-13T17:11:09.131Z,149.70
2022-12-13T17:13:37.383Z,143.90
2022-12-13T17:16:07.609Z,145.90
2022-12-13T17:18:34.162Z,143.90
2022-12-13T17:21:06.804Z,136.60
2022-12-13T17:23:33.882Z,121.30
2022-12-13T17:26:05.131Z,121.80
2022-12-13T17:28:31.541Z,117.90
2022-12-13T17:31:16.429Z,110.80
2022-12-13T17:33:43.904Z,118.40
2022-12-13T17:36:12.487Z,116.30
2022-12-13T17:38:43.631Z,107.70
2022-12-13T17:41:10.172Z,91.30
2022-12-13T17:43:37.028Z,103.10
2022-12-13T17:46:13.521Z,127.60
2022-12-13T17:48:41.472Z,118.00
2022-12-13T17:51:11.083Z,112.70
2022-12-13T17:53:42.633Z,106.90
2022-12-13T17:58:36.519Z,99.30
2022-12-13T18:01:14.985Z,85.20
2022-12-13T18:03:42.731Z,76.10
2022-12-13T18:06:09.894Z,76.30
2022-12-13T18:08:38.632Z,72.80
2022-12-13T18:13:55.716Z,73.20
2022-12-13T18:16:24.753Z,79.20
2022-12-13T18:18:55.991Z,92.80
2022-12-13T18:21:24.238Z,108.80
2022-12-13T18:23:55.747Z,106.80
2022-12-13T18:26:24.459Z,104.80
2022-12-13T18:28:52.207Z,98.70
2022-12-13T18:31:22.240Z,95.20
2022-12-13T18:33:50.350Z,109.70
2022-12-13T18:36:18.431Z,117.40
2022-12-13T18:38:45.482Z,111.30
2022-12-13T18:41:14.406Z,105.10
2022-12-13T18:43:42.548Z,100.80
2022-12-13T18:46:10.173Z,102.00
2022-12-13T18:48:37.370Z,106.30
2022-12-13T18:51:07.554Z,133.20
2022-12-13T18:53:35.193Z,135.80
2022-12-13T18:56:11.617Z,140.20
2022-12-13T18:58:43.187Z,129.90
2022-12-13T19:01:12.028Z,132.10
2022-12-13T19:03:39.616Z,202.60
2022-12-13T19:06:07.538Z,155.10
2022-12-13T19:08:34.663Z,146.00
2022-12-13T19:11:02.232Z,140.20
2022-12-13T19:13:30.021Z,127.90
2022-12-13T19:15:58.715Z,126.20
2022-12-13T19:18:25.529Z,127.50
2022-12-13T19:20:53.805Z,125.10
2022-12-13T19:23:21.571Z,120.50
2022-12-13T19:25:48.738Z,124.90
2022-12-13T19:28:18.095Z,126.90
2022-12-13T19:30:46.721Z,118.90
2022-12-13T19:33:16.057Z,146.80
2022-12-13T19:35:43.993Z,205.00
2022-12-13T19:38:11.045Z,161.10
2022-12-13T19:40:42.619Z,166.40
2022-12-13T19:45:36.917Z,183.80
2022-12-13T19:48:04.024Z,155.40
2022-12-13T19:50:30.807Z,184.10
2022-12-13T19:52:57.963Z,151.10
2022-12-13T19:55:24.771Z,138.70
2022-12-13T19:57:51.451Z,142.60
2022-12-13T20:00:18.195Z,152.50
2022-12-13T20:02:44.629Z,140.10
2022-12-13T20:05:11.540Z,140.90
2022-12-13T20:07:38.095Z,140.10
2022-12-13T20:10:05.995Z,131.70
2022-12-13T20:12:37.221Z,120.60
2022-12-13T20:15:08.394Z,88.80
2022-12-13T20:17:35.751Z,82.60
2022-12-13T20:20:03.001Z,70.40
2022-12-13T20:22:29.741Z,69.20
2022-12-13T20:24:56.377Z,67.60
2022-12-13T20:27:23.022Z,66.20
2022-12-13T20:29:49.663Z,67.30
2022-12-13T20:32:17.129Z,70.10
2022-12-13T20:34:44.075Z,71.40
2022-12-13T20:37:10.716Z,79.70
2022-12-13T20:39:37.359Z,83.40
2022-12-13T20:42:03.900Z,88.30
2022-12-13T20:44:30.631Z,89.10
2022-12-13T20:46:57.377Z,87.00
2022-12-13T20:49:24.033Z,88.10
2022-12-13T20:51:50.675Z,103.70
2022-12-13T20:54:17.417Z,93.40
2022-12-13T20:56:43.962Z,117.10
2022-12-13T20:59:12.959Z,121.50
2022-12-13T21:01:41.490Z,106.20
2022-12-13T21:04:10.128Z,68.50
2022-12-13T21:06:38.945Z,67.20
2022-12-13T21:09:06.587Z,52.50
2022-12-13T21:11:36.076Z,53.10
2022-12-13T21:14:09.085Z,50.20
2022-12-13T21:16:40.978Z,54.40
2022-12-13T21:19:09.989Z,55.80
2022-12-13T21:21:37.309Z,55.70
2022-12-13T21:24:04.157Z,49.80
2022-12-13T21:26:35.184Z,52.20
2022-12-13T21:29:05.911Z,59.60
2022-12-13T21:31:32.750Z,61.20
2022-12-13T21:34:00.643Z,62.60
2022-12-13T21:36:32.127Z,60.90
2022-12-13T21:41:27.936Z,61.30
2022-12-13T21:43:55.212Z,68.60
2022-12-13T21:46:25.977Z,71.00
2022-12-13T21:48:57.590Z,72.50
2022-12-13T21:51:26.010Z,69.60
2022-12-13T21:53:53.636Z,66.80
2022-12-13T21:56:23.074Z,68.50
2022-12-13T21:58:49.501Z,70.80
2022-12-13T22:01:15.996Z,64.50
2022-12-13T22:03:42.497Z,66.60
2022-12-13T22:06:09.242Z,66.70
2022-12-13T22:08:35.783Z,75.20
2022-12-13T22:11:02.160Z,76.40
2022-12-13T22:13:28.871Z,69.10
2022-12-13T22:15:55.306Z,75.30
2022-12-13T22:18:22.015Z,66.80
2022-12-13T22:20:58.633Z,69.00
2022-12-13T22:23:25.171Z,70.00
2022-12-13T22:25:51.590Z,71.30
2022-12-13T22:28:18.050Z,65.60
2022-12-13T22:30:44.586Z,67.60
2022-12-13T22:33:11.037Z,84.30
2022-12-13T22:35:38.060Z,74.00
2022-12-13T22:38:04.721Z,68.90
2022-12-13T22:40:31.106Z,74.40
2022-12-13T22:42:57.592Z,66.00
2022-12-13T22:45:24.135Z,70.20
2022-12-13T22:47:50.568Z,69.60
2022-12-13T22:50:17.215Z,64.80
2022-12-13T22:52:43.635Z,66.50
2022-12-13T22:55:10.192Z,64.40
2022-12-13T22:57:36.620Z,75.30
2022-12-13T23:00:05.645Z,84.80
2022-12-13T23:02:32.053Z,80.80
2022-12-13T23:04:58.618Z,73.70
2022-12-13T23:07:25.148Z,71.00
2022-12-13T23:09:51.686Z,66.90
2022-12-13T23:12:18.124Z,57.90
2022-12-13T23:14:44.565Z,58.00
2022-12-13T23:17:11.141Z,55.80
2022-12-13T23:19:50.260Z,57.40
2022-12-13T23:22:22.136Z,63.80
2022-12-13T23:24:49.567Z,73.60
2022-12-13T23:27:16.623Z,78.70
2022-12-13T23:29:43.162Z,76.80
2022-12-13T23:32:09.616Z,82.40
2022-12-13T23:34:36.052Z,89.80
2022-12-13T23:37:02.457Z,92.20
2022-12-13T23:39:28.914Z,88.50
2022-12-13T23:41:55.454Z,92.00
2022-12-13T23:44:22.029Z,100.60
2022-12-13T23:46:49.142Z,104.00
2022-12-13T23:49:16.845Z,81.40
2022-12-13T23:51:43.438Z,61.90
2022-12-13T23:54:11.030Z,49.50
2022-12-13T23:56:37.429Z,48.30
2022-12-13T23:59:03.846Z,47.20
